sensor_id;sensor_type;location;lat;lon;timestamp;P1;durP1;ratioP1;P2;durP2;ratioP2
68593;SDS011;55563;52.416;13.548;2023-05-10T00:00:56;1.00;;;1.00;;
68593;SDS011;55563;52.416;13.548;2023-05-10T00:02:57;0.90;;;0.90;;
68593;SDS011;55563;52.416;13.548;2023-05-10T00:04:58;0.75;;;0.75;;
68593;SDS011;55563;52.416;13.548;2023-05-10T00:06:58;1.00;;;1.00;;
68593;SDS011;55563;52.416;13.548;2023-05-10T00:08:59;1.08;;;1.08;;
68593;SDS011;55563;52.416;13.548;2023-05-10T00:11:00;0.90;;;0.90;;
68593;SDS011;55563;52.416;13.548;2023-05-10T00:13:01;0.98;;;0.98;;
68593;SDS011;55563;52.416;13.548;2023-05-10T00:15:01;1.02;;;1.02;;
68593;SDS011;55563;52.416;13.548;2023-05-10T00:17:04;1.20;;;1.20;;
68593;SDS011;55563;52.416;13.548;2023-05-10T00:19:05;1.10;;;1.10;;
68593;SDS011;55563;52.416;13.548;2023-05-10T00:21:05;1.23;;;1.23;;
68593;SDS011;55563;52.416;13.548;2023-05-10T00:23:06;1.08;;;1.05;;
68593;SDS011;55563;52.416;13.548;2023-05-10T00:25:07;0.80;;;0.80;;
68593;SDS011;55563;52.416;13.548;2023-05-10T00:27:09;1.08;;;1.08;;
68593;SDS011;55563;52.416;13.548;2023-05-10T00:29:10;1.08;;;1.08;;
68593;SDS011;55563;52.416;13.548;2023-05-10T00:31:10;0.80;;;0.80;;
68593;SDS011;55563;52.416;13.548;2023-05-10T00:33:11;0.95;;;0.95;;
68593;SDS011;55563;52.416;13.548;2023-05-10T00:37:13;0.90;;;0.90;;
68593;SDS011;55563;52.416;13.548;2023-05-10T00:39:13;1.00;;;1.00;;
68593;SDS011;55563;52.416;13.548;2023-05-10T00:41:14;0.88;;;0.88;;
68593;SDS011;55563;52.416;13.548;2023-05-10T00:43:16;0.80;;;0.80;;
68593;SDS011;55563;52.416;13.548;2023-05-10T00:45:17;1.35;;;1.25;;
68593;SDS011;55563;52.416;13.548;2023-05-10T00:49:19;0.90;;;0.90;;
68593;SDS011;55563;52.416;13.548;2023-05-10T00:51:21;1.23;;;1.23;;
68593;SDS011;55563;52.416;13.548;2023-05-10T00:53:22;0.82;;;0.82;;
68593;SDS011;55563;52.416;13.548;2023-05-10T00:55:23;1.15;;;1.15;;
68593;SDS011;55563;52.416;13.548;2023-05-10T00:57:24;0.93;;;0.93;;
68593;SDS011;55563;52.416;13.548;2023-05-10T00:59:25;1.15;;;1.05;;
68593;SDS011;55563;52.416;13.548;2023-05-10T01:01:26;0.80;;;0.80;;
68593;SDS011;55563;52.416;13.548;2023-05-10T01:03:28;0.80;;;0.80;;
68593;SDS011;55563;52.416;13.548;2023-05-10T01:05:29;1.15;;;1.15;;
68593;SDS011;55563;52.416;13.548;2023-05-10T01:07:31;1.10;;;1.10;;
68593;SDS011;55563;52.416;13.548;2023-05-10T01:09:32;0.95;;;0.95;;
68593;SDS011;55563;52.416;13.548;2023-05-10T01:11:34;1.00;;;1.00;;
68593;SDS011;55563;52.416;13.548;2023-05-10T01:13:37;0.85;;;0.85;;
68593;SDS011;55563;52.416;13.548;2023-05-10T01:15:39;0.90;;;0.90;;
68593;SDS011;55563;52.416;13.548;2023-05-10T01:17:42;0.90;;;0.90;;
68593;SDS011;55563;52.416;13.548;2023-05-10T01:19:45;1.08;;;1.08;;
68593;SDS011;55563;52.416;13.548;2023-05-10T01:26:48;0.40;;;0.40;;
68593;SDS011;55563;52.416;13.548;2023-05-10T01:29:13;0.32;;;0.32;;
68593;SDS011;55563;52.416;13.548;2023-05-10T01:34:16;1.80;;;0.57;;
68593;SDS011;55563;52.416;13.548;2023-05-10T01:38:47;0.30;;;0.30;;
68593;SDS011;55563;52.416;13.548;2023-05-10T01:41:03;0.52;;;0.52;;
68593;SDS011;55563;52.416;13.548;2023-05-10T01:43:19;0.35;;;0.35;;
68593;SDS011;55563;52.416;13.548;2023-05-10T01:45:30;0.52;;;0.52;;
68593;SDS011;55563;52.416;13.548;2023-05-10T01:48:08;0.30;;;0.30;;
68593;SDS011;55563;52.416;13.548;2023-05-10T01:50:15;0.85;;;0.82;;
68593;SDS011;55563;52.416;13.548;2023-05-10T01:52:18;0.70;;;0.70;;
68593;SDS011;55563;52.416;13.548;2023-05-10T01:54:23;0.47;;;0.47;;
68593;SDS011;55563;52.416;13.548;2023-05-10T01:56:25;0.82;;;0.60;;
68593;SDS011;55563;52.416;13.548;2023-05-10T01:58:29;0.60;;;0.60;;
68593;SDS011;55563;52.416;13.548;2023-05-10T02:00:32;1.13;;;0.70;;
68593;SDS011;55563;52.416;13.548;2023-05-10T02:02:39;0.45;;;0.45;;
68593;SDS011;55563;52.416;13.548;2023-05-10T02:04:42;0.32;;;0.32;;
68593;SDS011;55563;52.416;13.548;2023-05-10T02:06:44;0.40;;;0.40;;
68593;SDS011;55563;52.416;13.548;2023-05-10T02:08:48;0.50;;;0.50;;
68593;SDS011;55563;52.416;13.548;2023-05-10T02:10:51;0.60;;;0.60;;
68593;SDS011;55563;52.416;13.548;2023-05-10T02:12:58;0.25;;;0.25;;
68593;SDS011;55563;52.416;13.548;2023-05-10T02:15:02;0.45;;;0.45;;
68593;SDS011;55563;52.416;13.548;2023-05-10T02:17:05;0.40;;;0.40;;
68593;SDS011;55563;52.416;13.548;2023-05-10T02:19:09;0.22;;;0.22;;
68593;SDS011;55563;52.416;13.548;2023-05-10T02:21:12;0.43;;;0.43;;
68593;SDS011;55563;52.416;13.548;2023-05-10T02:23:14;0.40;;;0.40;;
68593;SDS011;55563;52.416;13.548;2023-05-10T02:25:18;0.50;;;0.50;;
68593;SDS011;55563;52.416;13.548;2023-05-10T02:27:21;0.70;;;0.70;;
68593;SDS011;55563;52.416;13.548;2023-05-10T02:29:24;0.52;;;0.52;;
68593;SDS011;55563;52.416;13.548;2023-05-10T02:31:28;0.65;;;0.65;;
68593;SDS011;55563;52.416;13.548;2023-05-10T02:33:32;0.32;;;0.25;;
68593;SDS011;55563;52.416;13.548;2023-05-10T02:35:34;0.45;;;0.40;;
68593;SDS011;55563;52.416;13.548;2023-05-10T02:37:36;0.73;;;0.73;;
68593;SDS011;55563;52.416;13.548;2023-05-10T02:39:38;0.40;;;0.40;;
68593;SDS011;55563;52.416;13.548;2023-05-10T02:41:43;0.50;;;0.50;;
68593;SDS011;55563;52.416;13.548;2023-05-10T02:43:49;0.40;;;0.40;;
68593;SDS011;55563;52.416;13.548;2023-05-10T02:45:52;0.40;;;0.40;;
68593;SDS011;55563;52.416;13.548;2023-05-10T02:47:52;0.40;;;0.38;;
68593;SDS011;55563;52.416;13.548;2023-05-10T02:49:54;0.30;;;0.30;;
68593;SDS011;55563;52.416;13.548;2023-05-10T02:51:56;0.47;;;0.47;;
68593;SDS011;55563;52.416;13.548;2023-05-10T02:54:01;0.50;;;0.50;;
68593;SDS011;55563;52.416;13.548;2023-05-10T02:56:13;0.95;;;0.70;;
68593;SDS011;55563;52.416;13.548;2023-05-10T02:59:22;0.47;;;0.47;;
68593;SDS011;55563;52.416;13.548;2023-05-10T03:01:28;0.43;;;0.43;;
68593;SDS011;55563;52.416;13.548;2023-05-10T03:03:32;0.20;;;0.20;;
68593;SDS011;55563;52.416;13.548;2023-05-10T03:05:32;0.65;;;0.40;;
68593;SDS011;55563;52.416;13.548;2023-05-10T03:07:39;0.30;;;0.30;;
68593;SDS011;55563;52.416;13.548;2023-05-10T03:09:40;0.45;;;0.45;;
68593;SDS011;55563;52.416;13.548;2023-05-10T03:11:54;0.32;;;0.30;;
68593;SDS011;55563;52.416;13.548;2023-05-10T03:16:46;1.75;;;0.65;;
68593;SDS011;55563;52.416;13.548;2023-05-10T03:18:56;4.32;;;0.63;;
68593;SDS011;55563;52.416;13.548;2023-05-10T03:21:12;0.32;;;0.32;;
68593;SDS011;55563;52.416;13.548;2023-05-10T03:25:28;0.98;;;0.98;;
68593;SDS011;55563;52.416;13.548;2023-05-10T03:27:31;1.30;;;1.23;;
68593;SDS011;55563;52.416;13.548;2023-05-10T03:29:34;0.90;;;0.47;;
68593;SDS011;55563;52.416;13.548;2023-05-10T03:31:37;0.43;;;0.43;;
68593;SDS011;55563;52.416;13.548;2023-05-10T03:33:46;0.40;;;0.40;;
68593;SDS011;55563;52.416;13.548;2023-05-10T03:35:50;0.40;;;0.40;;
68593;SDS011;55563;52.416;13.548;2023-05-10T03:37:51;0.40;;;0.40;;
68593;SDS011;55563;52.416;13.548;2023-05-10T03:39:52;0.20;;;0.20;;
68593;SDS011;55563;52.416;13.548;2023-05-10T03:41:53;0.63;;;0.40;;
68593;SDS011;55563;52.416;13.548;2023-05-10T03:43:54;0.38;;;0.38;;
68593;SDS011;55563;52.416;13.548;2023-05-10T03:45:55;0.30;;;0.30;;
68593;SDS011;55563;52.416;13.548;2023-05-10T03:47:56;0.60;;;0.60;;
68593;SDS011;55563;52.416;13.548;2023-05-10T03:49:58;0.45;;;0.45;;
68593;SDS011;55563;52.416;13.548;2023-05-10T03:51:59;0.40;;;0.40;;
68593;SDS011;55563;52.416;13.548;2023-05-10T03:54:00;0.52;;;0.52;;
68593;SDS011;55563;52.416;13.548;2023-05-10T03:56:01;0.98;;;0.82;;
68593;SDS011;55563;52.416;13.548;2023-05-10T03:58:02;0.25;;;0.25;;
68593;SDS011;55563;52.416;13.548;2023-05-10T04:00:03;0.30;;;0.30;;
68593;SDS011;55563;52.416;13.548;2023-05-10T04:02:28;0.90;;;0.90;;
68593;SDS011;55563;52.416;13.548;2023-05-10T04:04:30;0.68;;;0.68;;
68593;SDS011;55563;52.416;13.548;2023-05-10T04:06:31;1.00;;;1.00;;
68593;SDS011;55563;52.416;13.548;2023-05-10T04:08:32;1.10;;;1.10;;
68593;SDS011;55563;52.416;13.548;2023-05-10T04:10:32;0.77;;;0.77;;
68593;SDS011;55563;52.416;13.548;2023-05-10T04:12:33;1.05;;;1.05;;
68593;SDS011;55563;52.416;13.548;2023-05-10T04:14:34;0.82;;;0.82;;
68593;SDS011;55563;52.416;13.548;2023-05-10T04:16:34;0.85;;;0.85;;
68593;SDS011;55563;52.416;13.548;2023-05-10T04:18:35;0.95;;;0.95;;
68593;SDS011;55563;52.416;13.548;2023-05-10T04:20:36;0.95;;;0.95;;
68593;SDS011;55563;52.416;13.548;2023-05-10T04:22:36;0.80;;;0.80;;
68593;SDS011;55563;52.416;13.548;2023-05-10T04:24:37;1.00;;;1.00;;
68593;SDS011;55563;52.416;13.548;2023-05-10T04:26:38;0.90;;;0.90;;
68593;SDS011;55563;52.416;13.548;2023-05-10T04:28:38;1.05;;;1.05;;
68593;SDS011;55563;52.416;13.548;2023-05-10T04:30:39;0.82;;;0.82;;
68593;SDS011;55563;52.416;13.548;2023-05-10T04:32:40;0.80;;;0.80;;
68593;SDS011;55563;52.416;13.548;2023-05-10T04:34:41;0.95;;;0.95;;
68593;SDS011;55563;52.416;13.548;2023-05-10T04:36:42;0.70;;;0.70;;
68593;SDS011;55563;52.416;13.548;2023-05-10T04:38:42;0.88;;;0.88;;
68593;SDS011;55563;52.416;13.548;2023-05-10T04:40:43;0.85;;;0.85;;
68593;SDS011;55563;52.416;13.548;2023-05-10T04:42:44;0.80;;;0.80;;
68593;SDS011;55563;52.416;13.548;2023-05-10T04:44:45;1.10;;;1.10;;
68593;SDS011;55563;52.416;13.548;2023-05-10T04:46:46;1.65;;;1.42;;
68593;SDS011;55563;52.416;13.548;2023-05-10T04:48:46;0.80;;;0.80;;
68593;SDS011;55563;52.416;13.548;2023-05-10T04:50:47;1.25;;;1.25;;
68593;SDS011;55563;52.416;13.548;2023-05-10T04:52:48;1.40;;;1.33;;
68593;SDS011;55563;52.416;13.548;2023-05-10T04:54:49;1.15;;;1.05;;
68593;SDS011;55563;52.416;13.548;2023-05-10T04:56:49;1.40;;;1.40;;
68593;SDS011;55563;52.416;13.548;2023-05-10T04:58:50;1.00;;;1.00;;
68593;SDS011;55563;52.416;13.548;2023-05-10T05:00:51;0.63;;;0.30;;
68593;SDS011;55563;52.416;13.548;2023-05-10T05:02:51;0.95;;;0.95;;
68593;SDS011;55563;52.416;13.548;2023-05-10T05:04:52;1.67;;;1.45;;
68593;SDS011;55563;52.416;13.548;2023-05-10T05:06:53;0.88;;;0.88;;
68593;SDS011;55563;52.416;13.548;2023-05-10T05:08:53;0.88;;;0.88;;
68593;SDS011;55563;52.416;13.548;2023-05-10T05:10:55;0.98;;;0.98;;
68593;SDS011;55563;52.416;13.548;2023-05-10T05:12:56;0.93;;;0.93;;
68593;SDS011;55563;52.416;13.548;2023-05-10T05:14:58;1.02;;;1.02;;
68593;SDS011;55563;52.416;13.548;2023-05-10T05:17:04;1.30;;;1.20;;
68593;SDS011;55563;52.416;13.548;2023-05-10T05:19:05;0.80;;;0.80;;
68593;SDS011;55563;52.416;13.548;2023-05-10T05:21:15;0.85;;;0.85;;
68593;SDS011;55563;52.416;13.548;2023-05-10T05:23:17;1.00;;;1.00;;
68593;SDS011;55563;52.416;13.548;2023-05-10T05:25:19;1.02;;;0.98;;
68593;SDS011;55563;52.416;13.548;2023-05-10T05:27:19;1.15;;;1.05;;
68593;SDS011;55563;52.416;13.548;2023-05-10T05:29:24;1.02;;;0.95;;
68593;SDS011;55563;52.416;13.548;2023-05-10T05:31:26;0.80;;;0.80;;
68593;SDS011;55563;52.416;13.548;2023-05-10T05:33:27;0.90;;;0.90;;
68593;SDS011;55563;52.416;13.548;2023-05-10T05:35:27;0.75;;;0.75;;
68593;SDS011;55563;52.416;13.548;2023-05-10T05:37:28;0.80;;;0.80;;
68593;SDS011;55563;52.416;13.548;2023-05-10T05:39:29;0.75;;;0.75;;
68593;SDS011;55563;52.416;13.548;2023-05-10T05:41:29;2.05;;;1.50;;
68593;SDS011;55563;52.416;13.548;2023-05-10T05:43:30;1.67;;;1.33;;
68593;SDS011;55563;52.416;13.548;2023-05-10T05:45:31;0.80;;;0.80;;
68593;SDS011;55563;52.416;13.548;2023-05-10T05:47:31;0.95;;;0.95;;
68593;SDS011;55563;52.416;13.548;2023-05-10T05:49:32;1.52;;;1.42;;
68593;SDS011;55563;52.416;13.548;2023-05-10T05:51:33;0.80;;;0.80;;
68593;SDS011;55563;52.416;13.548;2023-05-10T05:53:35;1.10;;;1.10;;
68593;SDS011;55563;52.416;13.548;2023-05-10T05:55:35;1.02;;;1.02;;
68593;SDS011;55563;52.416;13.548;2023-05-10T05:57:36;0.93;;;0.93;;
68593;SDS011;55563;52.416;13.548;2023-05-10T05:59:37;0.88;;;0.88;;
68593;SDS011;55563;52.416;13.548;2023-05-10T06:01:42;0.80;;;0.80;;
68593;SDS011;55563;52.416;13.548;2023-05-10T06:03:42;1.10;;;1.00;;
68593;SDS011;55563;52.416;13.548;2023-05-10T06:05:43;0.90;;;0.90;;
68593;SDS011;55563;52.416;13.548;2023-05-10T06:07:44;0.90;;;0.90;;
68593;SDS011;55563;52.416;13.548;2023-05-10T06:09:44;0.95;;;0.95;;
68593;SDS011;55563;52.416;13.548;2023-05-10T06:11:45;0.85;;;0.85;;
68593;SDS011;55563;52.416;13.548;2023-05-10T06:13:47;0.73;;;0.73;;
68593;SDS011;55563;52.416;13.548;2023-05-10T06:15:48;1.23;;;1.23;;
68593;SDS011;55563;52.416;13.548;2023-05-10T06:17:48;1.05;;;1.05;;
68593;SDS011;55563;52.416;13.548;2023-05-10T06:19:50;1.20;;;1.20;;
68593;SDS011;55563;52.416;13.548;2023-05-10T06:21:50;0.90;;;0.90;;
68593;SDS011;55563;52.416;13.548;2023-05-10T06:23:51;1.10;;;1.10;;
68593;SDS011;55563;52.416;13.548;2023-05-10T06:25:52;1.08;;;1.08;;
68593;SDS011;55563;52.416;13.548;2023-05-10T06:27:53;0.98;;;0.98;;
68593;SDS011;55563;52.416;13.548;2023-05-10T06:29:57;0.90;;;0.90;;
68593;SDS011;55563;52.416;13.548;2023-05-10T06:31:58;1.00;;;1.00;;
68593;SDS011;55563;52.416;13.548;2023-05-10T06:33:59;0.95;;;0.95;;
68593;SDS011;55563;52.416;13.548;2023-05-10T06:35:59;0.90;;;0.90;;
68593;SDS011;55563;52.416;13.548;2023-05-10T06:38:00;0.90;;;0.90;;
68593;SDS011;55563;52.416;13.548;2023-05-10T06:40:00;0.80;;;0.80;;
68593;SDS011;55563;52.416;13.548;2023-05-10T06:42:02;1.13;;;1.13;;
68593;SDS011;55563;52.416;13.548;2023-05-10T06:44:06;0.80;;;0.80;;
68593;SDS011;55563;52.416;13.548;2023-05-10T06:46:07;0.95;;;0.95;;
68593;SDS011;55563;52.416;13.548;2023-05-10T06:48:08;1.15;;;1.15;;
68593;SDS011;55563;52.416;13.548;2023-05-10T06:50:09;1.45;;;1.35;;
68593;SDS011;55563;52.416;13.548;2023-05-10T06:52:10;0.73;;;0.73;;
68593;SDS011;55563;52.416;13.548;2023-05-10T06:54:10;0.80;;;0.80;;
68593;SDS011;55563;52.416;13.548;2023-05-10T06:56:11;0.50;;;0.50;;
68593;SDS011;55563;52.416;13.548;2023-05-10T06:58:12;1.88;;;1.52;;
68593;SDS011;55563;52.416;13.548;2023-05-10T07:00:13;1.05;;;1.05;;
68593;SDS011;55563;52.416;13.548;2023-05-10T07:02:14;1.48;;;1.38;;
68593;SDS011;55563;52.416;13.548;2023-05-10T07:04:15;0.90;;;0.90;;
68593;SDS011;55563;52.416;13.548;2023-05-10T07:06:15;0.88;;;0.88;;
68593;SDS011;55563;52.416;13.548;2023-05-10T07:08:16;1.00;;;1.00;;
68593;SDS011;55563;52.416;13.548;2023-05-10T07:10:18;0.98;;;0.98;;
68593;SDS011;55563;52.416;13.548;2023-05-10T07:12:19;1.23;;;1.17;;
68593;SDS011;55563;52.416;13.548;2023-05-10T07:17:40;0.90;;;0.90;;
68593;SDS011;55563;52.416;13.548;2023-05-10T07:19:41;0.40;;;0.40;;
68593;SDS011;55563;52.416;13.548;2023-05-10T07:21:41;0.82;;;0.82;;
68593;SDS011;55563;52.416;13.548;2023-05-10T07:23:43;0.90;;;0.90;;
68593;SDS011;55563;52.416;13.548;2023-05-10T07:25:45;1.10;;;1.10;;
68593;SDS011;55563;52.416;13.548;2023-05-10T07:27:46;0.90;;;0.90;;
68593;SDS011;55563;52.416;13.548;2023-05-10T07:29:48;0.85;;;0.85;;
68593;SDS011;55563;52.416;13.548;2023-05-10T07:31:49;1.08;;;1.08;;
68593;SDS011;55563;52.416;13.548;2023-05-10T07:33:49;1.23;;;1.23;;
68593;SDS011;55563;52.416;13.548;2023-05-10T07:35:50;0.30;;;0.30;;
68593;SDS011;55563;52.416;13.548;2023-05-10T07:37:51;0.80;;;0.80;;
68593;SDS011;55563;52.416;13.548;2023-05-10T07:39:51;1.30;;;1.30;;
68593;SDS011;55563;52.416;13.548;2023-05-10T07:41:53;0.95;;;0.95;;
68593;SDS011;55563;52.416;13.548;2023-05-10T07:43:53;1.15;;;1.15;;
68593;SDS011;55563;52.416;13.548;2023-05-10T07:45:54;0.82;;;0.82;;
68593;SDS011;55563;52.416;13.548;2023-05-10T07:47:55;0.90;;;0.90;;
68593;SDS011;55563;52.416;13.548;2023-05-10T07:49:56;0.88;;;0.88;;
68593;SDS011;55563;52.416;13.548;2023-05-10T07:51:56;0.93;;;0.93;;
68593;SDS011;55563;52.416;13.548;2023-05-10T07:54:00;1.02;;;1.02;;
68593;SDS011;55563;52.416;13.548;2023-05-10T07:56:19;0.80;;;0.80;;
68593;SDS011;55563;52.416;13.548;2023-05-10T07:58:29;0.95;;;0.95;;
68593;SDS011;55563;52.416;13.548;2023-05-10T08:00:30;1.00;;;1.00;;
68593;SDS011;55563;52.416;13.548;2023-05-10T08:02:31;3.30;;;1.38;;
68593;SDS011;55563;52.416;13.548;2023-05-10T08:04:31;1.17;;;1.17;;
68593;SDS011;55563;52.416;13.548;2023-05-10T08:06:32;1.15;;;1.15;;
68593;SDS011;55563;52.416;13.548;2023-05-10T08:08:32;0.90;;;0.90;;
68593;SDS011;55563;52.416;13.548;2023-05-10T08:10:33;0.95;;;0.90;;
68593;SDS011;55563;52.416;13.548;2023-05-10T08:14:37;1.25;;;1.25;;
68593;SDS011;55563;52.416;13.548;2023-05-10T08:18:39;0.90;;;0.90;;
68593;SDS011;55563;52.416;13.548;2023-05-10T08:20:40;0.95;;;0.95;;
68593;SDS011;55563;52.416;13.548;2023-05-10T08:24:41;0.40;;;0.40;;
68593;SDS011;55563;52.416;13.548;2023-05-10T08:28:42;1.10;;;1.08;;
68593;SDS011;55563;52.416;13.548;2023-05-10T08:30:43;0.88;;;0.88;;
68593;SDS011;55563;52.416;13.548;2023-05-10T08:32:43;1.30;;;1.20;;
68593;SDS011;55563;52.416;13.548;2023-05-10T08:34:44;0.85;;;0.85;;
68593;SDS011;55563;52.416;13.548;2023-05-10T08:36:45;0.90;;;0.90;;
68593;SDS011;55563;52.416;13.548;2023-05-10T08:40:46;2.00;;;1.40;;
68593;SDS011;55563;52.416;13.548;2023-05-10T08:43:27;1.77;;;1.17;;
68593;SDS011;55563;52.416;13.548;2023-05-10T08:45:30;1.13;;;1.13;;
68593;SDS011;55563;52.416;13.548;2023-05-10T08:47:33;0.88;;;0.88;;
68593;SDS011;55563;52.416;13.548;2023-05-10T08:49:38;0.70;;;0.70;;
68593;SDS011;55563;52.416;13.548;2023-05-10T08:51:40;0.77;;;0.77;;
68593;SDS011;55563;52.416;13.548;2023-05-10T08:53:44;1.05;;;1.05;;
68593;SDS011;55563;52.416;13.548;2023-05-10T08:55:45;1.45;;;1.30;;
68593;SDS011;55563;52.416;13.548;2023-05-10T08:57:47;0.90;;;0.90;;
68593;SDS011;55563;52.416;13.548;2023-05-10T09:01:48;1.33;;;1.33;;
68593;SDS011;55563;52.416;13.548;2023-05-10T09:03:50;0.95;;;0.95;;
68593;SDS011;55563;52.416;13.548;2023-05-10T09:05:52;0.85;;;0.85;;
68593;SDS011;55563;52.416;13.548;2023-05-10T09:09:54;1.05;;;1.05;;
68593;SDS011;55563;52.416;13.548;2023-05-10T09:11:58;1.20;;;1.20;;
68593;SDS011;55563;52.416;13.548;2023-05-10T09:13:58;1.10;;;0.90;;
68593;SDS011;55563;52.416;13.548;2023-05-10T09:15:59;0.70;;;0.70;;
68593;SDS011;55563;52.416;13.548;2023-05-10T09:18:01;0.35;;;0.35;;
68593;SDS011;55563;52.416;13.548;2023-05-10T09:20:03;1.30;;;1.30;;
68593;SDS011;55563;52.416;13.548;2023-05-10T09:22:04;1.08;;;0.93;;
68593;SDS011;55563;52.416;13.548;2023-05-10T09:24:05;1.08;;;1.08;;
68593;SDS011;55563;52.416;13.548;2023-05-10T09:26:07;6.80;;;1.55;;
68593;SDS011;55563;52.416;13.548;2023-05-10T09:30:09;0.90;;;0.90;;
68593;SDS011;55563;52.416;13.548;2023-05-10T09:34:11;0.80;;;0.80;;
68593;SDS011;55563;52.416;13.548;2023-05-10T09:36:15;1.00;;;1.00;;
68593;SDS011;55563;52.416;13.548;2023-05-10T09:40:18;0.98;;;0.98;;
68593;SDS011;55563;52.416;13.548;2023-05-10T09:42:21;0.85;;;0.85;;
68593;SDS011;55563;52.416;13.548;2023-05-10T09:44:23;0.88;;;0.88;;
68593;SDS011;55563;52.416;13.548;2023-05-10T09:46:26;1.15;;;1.15;;
68593;SDS011;55563;52.416;13.548;2023-05-10T09:50:28;1.02;;;1.02;;
68593;SDS011;55563;52.416;13.548;2023-05-10T09:52:30;0.88;;;0.88;;
68593;SDS011;55563;52.416;13.548;2023-05-10T09:54:52;1.17;;;1.15;;
68593;SDS011;55563;52.416;13.548;2023-05-10T09:56:54;0.70;;;0.70;;
68593;SDS011;55563;52.416;13.548;2023-05-10T10:01:02;1.40;;;0.95;;
68593;SDS011;55563;52.416;13.548;2023-05-10T10:05:06;0.90;;;0.90;;
68593;SDS011;55563;52.416;13.548;2023-05-10T10:07:07;1.23;;;1.05;;
68593;SDS011;55563;52.416;13.548;2023-05-10T10:09:08;0.93;;;0.93;;
68593;SDS011;55563;52.416;13.548;2023-05-10T10:11:09;0.95;;;0.95;;
68593;SDS011;55563;52.416;13.548;2023-05-10T10:15:10;1.08;;;0.93;;
68593;SDS011;55563;52.416;13.548;2023-05-10T10:17:11;1.17;;;1.17;;
68593;SDS011;55563;52.416;13.548;2023-05-10T10:19:13;1.25;;;1.25;;
68593;SDS011;55563;52.416;13.548;2023-05-10T10:23:15;1.00;;;1.00;;
68593;SDS011;55563;52.416;13.548;2023-05-10T10:27:25;0.98;;;0.98;;
68593;SDS011;55563;52.416;13.548;2023-05-10T10:30:37;1.15;;;1.15;;
68593;SDS011;55563;52.416;13.548;2023-05-10T10:34:26;0.90;;;0.90;;
68593;SDS011;55563;52.416;13.548;2023-05-10T10:36:28;0.95;;;0.95;;
68593;SDS011;55563;52.416;13.548;2023-05-10T10:38:37;0.85;;;0.85;;
68593;SDS011;55563;52.416;13.548;2023-05-10T10:40:49;0.80;;;0.80;;
68593;SDS011;55563;52.416;13.548;2023-05-10T10:43:33;0.47;;;0.43;;
68593;SDS011;55563;52.416;13.548;2023-05-10T10:45:25;0.82;;;0.50;;
68593;SDS011;55563;52.416;13.548;2023-05-10T10:47:27;0.57;;;0.57;;
68593;SDS011;55563;52.416;13.548;2023-05-10T10:49:31;0.50;;;0.50;;
68593;SDS011;55563;52.416;13.548;2023-05-10T10:51:37;0.40;;;0.40;;
68593;SDS011;55563;52.416;13.548;2023-05-10T10:53:39;0.55;;;0.55;;
68593;SDS011;55563;52.416;13.548;2023-05-10T10:55:45;0.70;;;0.70;;
68593;SDS011;55563;52.416;13.548;2023-05-10T10:57:49;0.57;;;0.57;;
68593;SDS011;55563;52.416;13.548;2023-05-10T11:00:32;0.52;;;0.52;;
68593;SDS011;55563;52.416;13.548;2023-05-10T11:02:43;0.40;;;0.40;;
68593;SDS011;55563;52.416;13.548;2023-05-10T11:04:46;0.52;;;0.52;;
68593;SDS011;55563;52.416;13.548;2023-05-10T11:08:47;0.60;;;0.60;;
68593;SDS011;55563;52.416;13.548;2023-05-10T11:12:52;0.52;;;0.52;;
68593;SDS011;55563;52.416;13.548;2023-05-10T11:15:01;0.40;;;0.40;;
68593;SDS011;55563;52.416;13.548;2023-05-10T11:17:21;0.50;;;0.50;;
68593;SDS011;55563;52.416;13.548;2023-05-10T11:19:23;0.38;;;0.38;;
68593;SDS011;55563;52.416;13.548;2023-05-10T11:21:30;0.50;;;0.50;;
68593;SDS011;55563;52.416;13.548;2023-05-10T11:23:32;0.50;;;0.50;;
68593;SDS011;55563;52.416;13.548;2023-05-10T11:25:48;0.55;;;0.55;;
68593;SDS011;55563;52.416;13.548;2023-05-10T11:27:50;0.45;;;0.45;;
68593;SDS011;55563;52.416;13.548;2023-05-10T11:31:52;0.52;;;0.52;;
68593;SDS011;55563;52.416;13.548;2023-05-10T11:35:54;0.38;;;0.38;;
68593;SDS011;55563;52.416;13.548;2023-05-10T11:39:55;0.43;;;0.43;;
68593;SDS011;55563;52.416;13.548;2023-05-10T11:43:56;0.40;;;0.40;;
68593;SDS011;55563;52.416;13.548;2023-05-10T11:45:58;0.32;;;0.32;;
68593;SDS011;55563;52.416;13.548;2023-05-10T11:47:59;0.60;;;0.60;;
68593;SDS011;55563;52.416;13.548;2023-05-10T11:50:01;0.40;;;0.40;;
68593;SDS011;55563;52.416;13.548;2023-05-10T11:52:03;0.45;;;0.45;;
68593;SDS011;55563;52.416;13.548;2023-05-10T11:54:06;0.30;;;0.30;;
68593;SDS011;55563;52.416;13.548;2023-05-10T11:56:09;0.47;;;0.47;;
68593;SDS011;55563;52.416;13.548;2023-05-10T11:58:10;0.43;;;0.43;;
68593;SDS011;55563;52.416;13.548;2023-05-10T12:02:25;0.50;;;0.50;;
68593;SDS011;55563;52.416;13.548;2023-05-10T12:06:30;0.40;;;0.40;;
68593;SDS011;55563;52.416;13.548;2023-05-10T12:08:32;0.88;;;0.88;;
68593;SDS011;55563;52.416;13.548;2023-05-10T12:10:33;0.30;;;0.30;;
68593;SDS011;55563;52.416;13.548;2023-05-10T12:12:36;0.40;;;0.40;;
68593;SDS011;55563;52.416;13.548;2023-05-10T12:14:48;0.40;;;0.40;;
68593;SDS011;55563;52.416;13.548;2023-05-10T12:16:50;0.40;;;0.40;;
68593;SDS011;55563;52.416;13.548;2023-05-10T12:20:52;0.50;;;0.50;;
68593;SDS011;55563;52.416;13.548;2023-05-10T12:22:55;0.30;;;0.30;;
68593;SDS011;55563;52.416;13.548;2023-05-10T12:24:58;0.40;;;0.40;;
68593;SDS011;55563;52.416;13.548;2023-05-10T12:26:59;0.40;;;0.40;;
68593;SDS011;55563;52.416;13.548;2023-05-10T12:29:15;0.40;;;0.40;;
68593;SDS011;55563;52.416;13.548;2023-05-10T12:31:17;0.40;;;0.40;;
68593;SDS011;55563;52.416;13.548;2023-05-10T12:33:18;0.50;;;0.50;;
68593;SDS011;55563;52.416;13.548;2023-05-10T12:37:23;0.32;;;0.32;;
68593;SDS011;55563;52.416;13.548;2023-05-10T12:39:43;0.43;;;0.43;;
68593;SDS011;55563;52.416;13.548;2023-05-10T12:41:44;0.40;;;0.40;;
68593;SDS011;55563;52.416;13.548;2023-05-10T12:43:45;0.40;;;0.40;;
68593;SDS011;55563;52.416;13.548;2023-05-10T12:45:46;0.80;;;0.80;;
68593;SDS011;55563;52.416;13.548;2023-05-10T12:47:48;0.60;;;0.55;;
68593;SDS011;55563;52.416;13.548;2023-05-10T12:49:49;0.50;;;0.50;;
68593;SDS011;55563;52.416;13.548;2023-05-10T12:51:51;0.50;;;0.50;;
68593;SDS011;55563;52.416;13.548;2023-05-10T12:53:51;0.50;;;0.50;;
68593;SDS011;55563;52.416;13.548;2023-05-10T12:57:53;0.30;;;0.30;;
68593;SDS011;55563;52.416;13.548;2023-05-10T12:59:54;0.40;;;0.40;;
68593;SDS011;55563;52.416;13.548;2023-05-10T13:01:56;0.40;;;0.40;;
68593;SDS011;55563;52.416;13.548;2023-05-10T13:03:57;0.30;;;0.30;;
68593;SDS011;55563;52.416;13.548;2023-05-10T13:07:58;0.40;;;0.40;;
68593;SDS011;55563;52.416;13.548;2023-05-10T13:12:00;0.45;;;0.45;;
68593;SDS011;55563;52.416;13.548;2023-05-10T13:16:03;0.50;;;0.50;;
68593;SDS011;55563;52.416;13.548;2023-05-10T13:18:04;0.50;;;0.50;;
68593;SDS011;55563;52.416;13.548;2023-05-10T13:20:05;0.30;;;0.30;;
68593;SDS011;55563;52.416;13.548;2023-05-10T13:22:06;0.38;;;0.38;;
68593;SDS011;55563;52.416;13.548;2023-05-10T13:24:07;0.40;;;0.40;;
68593;SDS011;55563;52.416;13.548;2023-05-10T13:28:08;0.98;;;0.52;;
68593;SDS011;55563;52.416;13.548;2023-05-10T13:32:09;0.40;;;0.40;;
68593;SDS011;55563;52.416;13.548;2023-05-10T13:36:11;0.40;;;0.40;;
68593;SDS011;55563;52.416;13.548;2023-05-10T13:40:12;0.30;;;0.30;;
68593;SDS011;55563;52.416;13.548;2023-05-10T13:42:15;0.63;;;0.63;;
68593;SDS011;55563;52.416;13.548;2023-05-10T13:44:16;0.40;;;0.40;;